Time;durP1;ratioP1;P1;durP2;ratioP2;P2;SDS_P1;SDS_P2;PMS_P1;PMS_P2;Temp;Humidity;BMP_temperature;BMP_pressure;BME280_temperature;BME280_humidity;BME280_pressure;Samples;Min_cycle;Max_cycle;Signal;HPM_P1;HPM_P2
2022/08/24 00:01:58;;;;;;;1.40;1.08;;;;;;;;;;5032664;28;20110;-70
2022/08/24 00:04:24;;;;;;;1.52;0.90;;;;;;;;;;5032789;28;20049;-70
2022/08/24 00:06:51;;;;;;;0.70;0.70;;;;;;;;;;5032756;28;20054;-70
2022/08/24 00:09:17;;;;;;;1.60;0.80;;;;;;;;;;5032390;28;20493;-70
2022/08/24 00:11:44;;;;;;;0.80;0.80;;;;;;;;;;5031012;28;20497;-70
2022/08/24 00:14:10;;;;;;;1.05;0.95;;;;;;;;;;5032349;28;20053;-70
2022/08/24 00:16:37;;;;;;;1.90;0.82;;;;;;;;;;5032412;28;20050;-70
2022/08/24 00:19:04;;;;;;;0.95;0.70;;;;;;;;;;5032145;28;20567;-70
2022/08/24 00:21:30;;;;;;;0.97;0.87;;;;;;;;;;5032194;28;20049;-70
2022/08/24 00:23:57;;;;;;;1.00;0.83;;;;;;;;;;5032312;28;20099;-70
2022/08/24 00:26:28;;;;;;;1.20;0.90;;;;;;;;;;5032516;28;20057;-69
2022/08/24 00:28:55;;;;;;;0.80;0.80;;;;;;;;;;5031051;28;20050;-70
2022/08/24 00:31:21;;;;;;;1.35;0.90;;;;;;;;;;5032214;28;20080;-70
2022/08/24 00:33:48;;;;;;;1.00;1.00;;;;;;;;;;5032303;28;20046;-70
2022/08/24 00:36:14;;;;;;;0.88;0.88;;;;;;;;;;5031994;28;20099;-70
2022/08/24 00:38:41;;;;;;;1.00;0.90;;;;;;;;;;5032091;28;20088;-70
2022/08/24 00:41:07;;;;;;;2.33;1.17;;;;;;;;;;5032135;28;20077;-70
2022/08/24 00:43:34;;;;;;;1.45;1.35;;;;;;;;;;5031996;28;20049;-70
2022/08/24 00:46:16;;;;;;;1.30;1.20;;;;;;;;;;5030941;28;20050;-70
2022/08/24 00:48:44;;;;;;;2.20;1.50;;;;;;;;;;5031635;28;20283;-70
2022/08/24 00:51:19;;;;;;;1.67;1.23;;;;;;;;;;5031421;28;20098;-70
2022/08/24 00:53:49;;;;;;;1.50;1.40;;;;;;;;;;5030513;28;20535;-70
2022/08/24 00:56:36;;;;;;;1.45;1.40;;;;;;;;;;5031903;28;20073;-70
2022/08/24 00:59:05;;;;;;;1.90;1.40;;;;;;;;;;5031512;28;20151;-70
2022/08/24 01:01:33;;;;;;;3.60;1.63;;;;;;;;;;5031686;28;20053;-70
2022/08/24 01:04:01;;;;;;;2.38;1.70;;;;;;;;;;5031806;28;20416;-70
2022/08/24 01:06:27;;;;;;;2.17;1.75;;;;;;;;;;5031457;28;20486;-70
2022/08/24 01:08:54;;;;;;;2.63;1.67;;;;;;;;;;5030584;28;20077;-70
2022/08/24 01:11:23;;;;;;;1.52;1.40;;;;;;;;;;5031725;28;20050;-70
2022/08/24 01:13:51;;;;;;;2.17;1.88;;;;;;;;;;5031367;28;20073;-70
2022/08/24 01:19:05;;;;;;;1.80;1.70;;;;;;;;;;5031490;28;20053;-70
2022/08/24 01:21:55;;;;;;;2.67;1.55;;;;;;;;;;5031687;28;20115;-70
2022/08/24 01:24:21;;;;;;;2.97;1.63;;;;;;;;;;5030119;28;20089;-70
2022/08/24 01:26:49;;;;;;;3.43;2.50;;;;;;;;;;5031561;28;20103;-70
2022/08/24 01:29:15;;;;;;;;;;;;;;;;;;5032237;28;20053;-70
2022/08/24 01:31:42;;;;;;;2.17;1.53;;;;;;;;;;5031550;28;19964;-70
2022/08/24 01:34:10;;;;;;;1.95;1.70;;;;;;;;;;5031380;28;20053;-70
2022/08/24 01:36:38;;;;;;;1.77;1.67;;;;;;;;;;5031491;28;20077;-70
2022/08/24 01:39:20;;;;;;;1.73;1.63;;;;;;;;;;5031135;28;20077;-70
2022/08/24 01:41:46;;;;;;;2.13;1.92;;;;;;;;;;5031650;28;20045;-70
2022/08/24 01:44:13;;;;;;;3.88;1.90;;;;;;;;;;5031462;28;20049;-70
2022/08/24 01:46:43;;;;;;;2.13;1.77;;;;;;;;;;5031301;28;20053;-70
2022/08/24 01:49:10;;;;;;;2.55;1.80;;;;;;;;;;5031403;28;20049;-70
2022/08/24 01:51:37;;;;;;;2.03;1.80;;;;;;;;;;5030959;28;20134;-70
2022/08/24 01:54:04;;;;;;;2.37;1.70;;;;;;;;;;5031132;28;20049;-70
2022/08/24 01:56:31;;;;;;;2.83;1.88;;;;;;;;;;5031032;28;20490;-70
2022/08/24 01:58:58;;;;;;;2.13;1.52;;;;;;;;;;5031327;28;20132;-70
2022/08/24 02:01:26;;;;;;;1.75;1.65;;;;;;;;;;5032312;28;20563;-70
2022/08/24 02:03:52;;;;;;;2.05;1.80;;;;;;;;;;5034791;28;20053;-70
2022/08/24 02:06:19;;;;;;;1.42;1.35;;;;;;;;;;5034779;28;20498;-70
2022/08/24 02:08:45;;;;;;;1.98;1.75;;;;;;;;;;5035020;28;20053;-70
2022/08/24 02:11:12;;;;;;;3.90;1.77;;;;;;;;;;5033339;28;20494;-70
2022/08/24 02:13:39;;;;;;;1.65;1.55;;;;;;;;;;5034590;28;20084;-70
2022/08/24 02:16:05;;;;;;;2.58;1.48;;;;;;;;;;5034706;28;20084;-70
2022/08/24 02:18:33;;;;;;;2.30;1.60;;;;;;;;;;5034577;28;20053;-70
2022/08/24 02:21:00;;;;;;;1.88;1.77;;;;;;;;;;5034489;28;20747;-70
2022/08/24 02:23:27;;;;;;;3.87;1.73;;;;;;;;;;5034630;28;20084;-70
2022/08/24 02:25:54;;;;;;;3.45;2.17;;;;;;;;;;5034354;28;20041;-70
2022/08/24 02:28:21;;;;;;;1.83;1.63;;;;;;;;;;5034681;28;20152;-70
2022/08/24 02:30:48;;;;;;;2.28;1.80;;;;;;;;;;5034285;28;20493;-70
2022/08/24 02:33:14;;;;;;;3.95;1.80;;;;;;;;;;5034552;28;20049;-70
2022/08/24 02:35:41;;;;;;;2.75;1.83;;;;;;;;;;5034484;28;20042;-70
2022/08/24 02:38:08;;;;;;;2.05;1.75;;;;;;;;;;5034151;28;20073;-70
2022/08/24 02:40:36;;;;;;;2.15;1.73;;;;;;;;;;5034374;28;20086;-70
2022/08/24 02:43:03;;;;;;;2.03;1.83;;;;;;;;;;5033215;28;20166;-70
2022/08/24 02:45:30;;;;;;;1.63;1.52;;;;;;;;;;5034025;28;20045;-70
2022/08/24 02:47:57;;;;;;;1.77;1.63;;;;;;;;;;5034619;28;20080;-70
2022/08/24 02:50:25;;;;;;;2.72;1.70;;;;;;;;;;5033855;28;20314;-70
2022/08/24 02:52:53;;;;;;;2.45;1.83;;;;;;;;;;5033008;28;20045;-70
2022/08/24 02:55:19;;;;;;;2.60;2.00;;;;;;;;;;5034099;28;20046;-70
2022/08/24 02:57:46;;;;;;;2.35;1.80;;;;;;;;;;5033982;28;20095;-70
2022/08/24 03:00:14;;;;;;;2.55;1.83;;;;;;;;;;5033784;28;20136;-70
2022/08/24 03:02:40;;;;;;;;;;;;;;;;;;5034352;28;20434;-70
2022/08/24 03:05:07;;;;;;;2.30;1.90;;;;;;;;;;5032714;28;19932;-70
2022/08/24 03:07:34;;;;;;;1.85;1.73;;;;;;;;;;5033858;28;20041;-70
2022/08/24 03:10:00;;;;;;;2.03;1.80;;;;;;;;;;5033497;28;20088;-70
2022/08/24 03:12:27;;;;;;;1.70;1.60;;;;;;;;;;5033297;28;20453;-70
2022/08/24 03:14:54;;;;;;;1.88;1.77;;;;;;;;;;5033445;28;20077;-70
2022/08/24 03:17:22;;;;;;;5.05;1.77;;;;;;;;;;5033622;28;20042;-70
2022/08/24 03:19:49;;;;;;;2.03;1.73;;;;;;;;;;5033392;28;20081;-70
2022/08/24 03:22:16;;;;;;;1.85;1.70;;;;;;;;;;5033241;28;20532;-70
2022/08/24 03:24:43;;;;;;;2.22;1.80;;;;;;;;;;5033848;28;20077;-70
2022/08/24 03:27:12;;;;;;;2.38;2.10;;;;;;;;;;5033438;28;20057;-70
2022/08/24 03:29:39;;;;;;;1.67;1.58;;;;;;;;;;5033390;28;20081;-70
2022/08/24 03:32:07;;;;;;;3.05;2.13;;;;;;;;;;5033558;28;20060;-70
2022/08/24 03:34:33;;;;;;;2.20;2.00;;;;;;;;;;5033338;28;20061;-70
2022/08/24 03:36:59;;;;;;;2.30;2.20;;;;;;;;;;5033051;28;20053;-70
2022/08/24 03:39:26;;;;;;;2.38;1.90;;;;;;;;;;5031992;28;20500;-70
2022/08/24 03:41:52;;;;;;;3.57;2.23;;;;;;;;;;5032889;28;20088;-70
2022/08/24 03:44:19;;;;;;;2.22;2.08;;;;;;;;;;5033185;28;20053;-70
2022/08/24 03:46:48;;;;;;;3.30;2.65;;;;;;;;;;5031543;28;20452;-70
2022/08/24 03:49:15;;;;;;;4.40;2.63;;;;;;;;;;5032910;28;20513;-70
2022/08/24 03:51:41;;;;;;;5.18;2.92;;;;;;;;;;5032625;28;20089;-70
2022/08/24 03:54:08;;;;;;;3.17;2.90;;;;;;;;;;5031800;28;20088;-70
2022/08/24 03:56:35;;;;;;;4.10;2.97;;;;;;;;;;5032796;28;20077;-70
2022/08/24 03:59:01;;;;;;;4.33;3.20;;;;;;;;;;5032987;28;20046;-70
2022/08/24 04:01:28;;;;;;;4.73;3.20;;;;;;;;;;5032603;28;20096;-70
2022/08/24 04:03:54;;;;;;;3.63;3.33;;;;;;;;;;5032479;28;20045;-70
2022/08/24 04:06:21;;;;;;;4.55;3.25;;;;;;;;;;5032513;28;20076;-70
2022/08/24 04:08:48;;;;;;;4.32;2.80;;;;;;;;;;5032508;28;20049;-70
2022/08/24 04:11:19;;;;;;;4.90;3.15;;;;;;;;;;5032336;28;20089;-70
2022/08/24 04:13:46;;;;;;;4.57;4.05;;;;;;;;;;5031402;28;20183;-70
2022/08/24 04:16:14;;;;;;;4.47;3.40;;;;;;;;;;5032262;28;20049;-70
2022/08/24 04:18:41;;;;;;;6.65;3.50;;;;;;;;;;5032128;28;20445;-70
2022/08/24 04:21:16;;;;;;;4.20;3.80;;;;;;;;;;5032413;28;20100;-70
2022/08/24 04:23:43;;;;;;;3.92;3.47;;;;;;;;;;5031649;28;20111;-70
2022/08/24 04:26:14;;;;;;;6.88;3.78;;;;;;;;;;5032609;28;20062;-70
2022/08/24 04:28:40;;;;;;;3.58;3.28;;;;;;;;;;5032222;28;20053;-70
2022/08/24 04:31:07;;;;;;;6.18;3.90;;;;;;;;;;5031956;28;20092;-70
2022/08/24 04:33:34;;;;;;;3.13;2.92;;;;;;;;;;5032262;28;20045;-70
2022/08/24 04:36:01;;;;;;;3.88;3.35;;;;;;;;;;5031993;28;20119;-70
2022/08/24 04:38:28;;;;;;;5.43;3.65;;;;;;;;;;5031844;28;20049;-70
2022/08/24 04:40:55;;;;;;;4.05;3.72;;;;;;;;;;5032070;28;20053;-71
2022/08/24 04:43:25;;;;;;;5.30;3.30;;;;;;;;;;5031836;28;20100;-71
2022/08/24 04:45:52;;;;;;;4.63;3.83;;;;;;;;;;5031769;28;20053;-71
2022/08/24 04:48:18;;;;;;;8.13;4.37;;;;;;;;;;5032033;28;20287;-71
2022/08/24 04:50:45;;;;;;;4.15;3.70;;;;;;;;;;5030419;28;20095;-71
2022/08/24 04:53:12;;;;;;;4.73;4.23;;;;;;;;;;5032181;28;20135;-71
2022/08/24 04:55:43;;;;;;;5.35;3.83;;;;;;;;;;5032144;28;20552;-71
2022/08/24 04:58:11;;;;;;;7.88;4.28;;;;;;;;;;5031927;28;20091;-71
2022/08/24 05:00:37;;;;;;;;;;;;;;;;;;5032155;28;20041;-70
2022/08/24 05:03:04;;;;;;;7.47;4.10;;;;;;;;;;5031606;28;19924;-71
2022/08/24 05:05:31;;;;;;;6.90;4.05;;;;;;;;;;5031721;28;20131;-71
2022/08/24 05:07:58;;;;;;;5.90;4.20;;;;;;;;;;5031758;28;20088;-70
2022/08/24 05:10:24;;;;;;;5.23;4.17;;;;;;;;;;5031888;28;20112;-70
2022/08/24 05:12:58;;;;;;;6.03;4.15;;;;;;;;;;5031774;28;20305;-70
2022/08/24 05:15:25;;;;;;;5.70;4.33;;;;;;;;;;5031672;28;20069;-71
2022/08/24 05:17:51;;;;;;;6.25;4.50;;;;;;;;;;5031501;28;20049;-71
2022/08/24 05:20:18;;;;;;;4.85;3.88;;;;;;;;;;5031684;28;20049;-71
2022/08/24 05:22:45;;;;;;;7.78;4.13;;;;;;;;;;5031434;28;20575;-71
2022/08/24 05:25:11;;;;;;;7.47;3.78;;;;;;;;;;5031479;28;20100;-70
2022/08/24 05:27:38;;;;;;;4.80;3.67;;;;;;;;;;5031646;28;20464;-70
2022/08/24 05:30:05;;;;;;;5.32;3.72;;;;;;;;;;5031442;28;20100;-70
2022/08/24 05:32:31;;;;;;;5.72;3.55;;;;;;;;;;5031427;28;20081;-70
2022/08/24 05:34:58;;;;;;;5.68;3.70;;;;;;;;;;5032407;28;20458;-70
2022/08/24 05:37:25;;;;;;;6.60;3.22;;;;;;;;;;5035322;28;20084;-70
2022/08/24 05:39:51;;;;;;;5.43;3.30;;;;;;;;;;5035227;28;20088;-70
2022/08/24 05:42:18;;;;;;;4.40;3.22;;;;;;;;;;5034241;28;20064;-70
2022/08/24 05:44:45;;;;;;;3.83;3.25;;;;;;;;;;5035060;28;20088;-70
2022/08/24 05:47:11;;;;;;;3.95;2.95;;;;;;;;;;5034782;28;20045;-71
2022/08/24 05:49:38;;;;;;;3.50;2.58;;;;;;;;;;5033440;28;20049;-72
2022/08/24 05:52:07;;;;;;;4.65;3.15;;;;;;;;;;5034847;28;20045;-72
2022/08/24 05:54:34;;;;;;;2.90;2.60;;;;;;;;;;5034786;28;20088;-71
2022/08/24 05:57:03;;;;;;;3.65;3.03;;;;;;;;;;5033458;28;20551;-72
2022/08/24 05:59:30;;;;;;;3.05;2.72;;;;;;;;;;5034775;28;20096;-72
2022/08/24 06:01:57;;;;;;;4.47;3.08;;;;;;;;;;5034765;28;20092;-75
2022/08/24 06:04:24;;;;;;;4.43;2.40;;;;;;;;;;5034441;28;20493;-73
2022/08/24 06:06:51;;;;;;;4.55;2.63;;;;;;;;;;5034429;28;20132;-75
2022/08/24 06:09:18;;;;;;;4.00;2.88;;;;;;;;;;5032764;28;20072;-74
2022/08/24 06:11:45;;;;;;;3.85;2.85;;;;;;;;;;5034544;28;20468;-74
2022/08/24 06:14:13;;;;;;;3.53;2.60;;;;;;;;;;5034420;28;20448;-72
2022/08/24 06:16:41;;;;;;;3.28;2.78;;;;;;;;;;5034478;28;20045;-71
2022/08/24 06:19:08;;;;;;;3.83;2.78;;;;;;;;;;5034647;28;20053;-73
2022/08/24 06:21:36;;;;;;;4.03;2.47;;;;;;;;;;5034192;28;20053;-75
2022/08/24 06:24:05;;;;;;;3.65;2.50;;;;;;;;;;5033864;28;20414;-73
2022/08/24 06:29:18;;;;;;;3.25;2.20;;;;;;;;;;5033000;28;20049;-72
2022/08/24 06:31:45;;;;;;;2.20;2.00;;;;;;;;;;5033980;28;20074;-72
2022/08/24 06:34:13;;;;;;;1.90;1.70;;;;;;;;;;5034083;28;20096;-72
2022/08/24 06:36:40;;;;;;;2.25;2.05;;;;;;;;;;5032573;28;20095;-74
2022/08/24 06:39:07;;;;;;;3.63;2.35;;;;;;;;;;5033540;28;20054;-72
2022/08/24 06:41:38;;;;;;;2.38;1.88;;;;;;;;;;5034070;28;20501;-71
2022/08/24 06:44:05;;;;;;;2.75;2.47;;;;;;;;;;5034047;28;20513;-71
2022/08/24 06:46:32;;;;;;;1.92;1.80;;;;;;;;;;5033426;28;20083;-71
2022/08/24 06:48:58;;;;;;;2.07;1.83;;;;;;;;;;5033469;28;20474;-74
2022/08/24 06:51:25;;;;;;;1.50;1.42;;;;;;;;;;5033916;28;20509;-72
2022/08/24 06:53:53;;;;;;;1.58;1.48;;;;;;;;;;5032609;28;20485;-73
2022/08/24 06:56:20;;;;;;;2.30;1.45;;;;;;;;;;5034013;28;20038;-71
2022/08/24 06:58:46;;;;;;;1.85;1.42;;;;;;;;;;5034121;28;20073;-72
2022/08/24 07:01:18;;;;;;;3.30;1.90;;;;;;;;;;5034033;28;20140;-72
2022/08/24 07:03:44;;;;;;;2.92;1.70;;;;;;;;;;5033411;28;20408;-72
2022/08/24 07:06:13;;;;;;;1.35;1.15;;;;;;;;;;5033478;28;20486;-72
2022/08/24 07:08:41;;;;;;;2.25;1.55;;;;;;;;;;5033197;28;20555;-73
2022/08/24 07:11:08;;;;;;;2.35;1.77;;;;;;;;;;5033140;28;20053;-72
2022/08/24 07:13:34;;;;;;;3.13;1.73;;;;;;;;;;5033079;28;20099;-72
2022/08/24 07:16:01;;;;;;;2.17;1.30;;;;;;;;;;5033083;28;20076;-73
2022/08/24 07:18:28;;;;;;;1.45;1.35;;;;;;;;;;5032854;28;20497;-73
2022/08/24 07:20:54;;;;;;;2.30;0.97;;;;;;;;;;5033469;28;20087;-75
2022/08/24 07:23:21;;;;;;;2.20;1.33;;;;;;;;;;5031220;28;20045;-74
2022/08/24 07:26:10;;;;;;;2.40;1.40;;;;;;;;;;5031590;28;20155;-75
2022/08/24 07:28:47;;;;;;;1.75;1.23;;;;;;;;;;5033493;28;20056;-72
2022/08/24 07:31:14;;;;;;;2.67;1.27;;;;;;;;;;5033261;28;20089;-72
2022/08/24 07:33:41;;;;;;;;;;;;;;;;;;5033390;28;20049;-71
2022/08/24 07:36:07;;;;;;;1.07;1.03;;;;;;;;;;5033112;28;19975;-72
2022/08/24 07:38:34;;;;;;;2.15;1.52;;;;;;;;;;5033066;28;20088;-70
2022/08/24 07:41:01;;;;;;;1.43;1.13;;;;;;;;;;5032927;28;20045;-72
2022/08/24 07:43:48;;;;;;;2.88;1.38;;;;;;;;;;5032889;28;20493;-71
2022/08/24 07:46:14;;;;;;;148.25;91.95;;;;;;;;;;5032959;28;20505;-71
2022/08/24 07:48:41;;;;;;;2.70;2.50;;;;;;;;;;5032977;28;20061;-71
2022/08/24 07:51:08;;;;;;;4.70;3.33;;;;;;;;;;5032771;28;20489;-71
2022/08/24 07:53:35;;;;;;;22.42;18.38;;;;;;;;;;5032744;28;20077;-71
2022/08/24 07:56:18;;;;;;;4.15;3.72;;;;;;;;;;5032614;28;20045;-70
2022/08/24 07:58:45;;;;;;;3.35;2.85;;;;;;;;;;5031885;28;20445;-69
2022/08/24 08:01:12;;;;;;;3.28;2.75;;;;;;;;;;5032350;28;20053;-71
2022/08/24 08:03:40;;;;;;;2.47;2.15;;;;;;;;;;5032453;28;20520;-69
2022/08/24 08:06:07;;;;;;;1.40;1.30;;;;;;;;;;5032804;28;20081;-70
2022/08/24 08:08:41;;;;;;;9.80;8.98;;;;;;;;;;5032611;28;20441;-72
2022/08/24 08:11:09;;;;;;;4.50;3.43;;;;;;;;;;5032371;28;20559;-71
2022/08/24 08:13:36;;;;;;;6.88;6.22;;;;;;;;;;5032114;28;20485;-71
2022/08/24 08:16:03;;;;;;;5.28;4.40;;;;;;;;;;5032325;28;20060;-71
2022/08/24 08:18:34;;;;;;;3.38;2.58;;;;;;;;;;5032316;28;20088;-71
2022/08/24 08:21:01;;;;;;;12.95;11.68;;;;;;;;;;5032559;28;20053;-71
2022/08/24 08:26:15;;;;;;;6.88;6.13;;;;;;;;;;5032348;28;19960;-73
2022/08/24 08:28:41;;;;;;;23.45;19.90;;;;;;;;;;5032213;28;20049;-72
2022/08/24 08:31:08;;;;;;;5.28;4.03;;;;;;;;;;5031977;28;20108;-72
2022/08/24 08:33:37;;;;;;;13.25;9.55;;;;;;;;;;5031217;28;20567;-71
2022/08/24 08:36:09;;;;;;;24.27;18.07;;;;;;;;;;5031824;28;20046;-71
2022/08/24 08:38:37;;;;;;;18.80;14.32;;;;;;;;;;5032114;28;20310;-71
2022/08/24 08:41:12;;;;;;;11.75;9.35;;;;;;;;;;5031830;28;20046;-71
2022/08/24 08:43:39;;;;;;;11.32;7.55;;;;;;;;;;5030783;28;20053;-71
2022/08/24 08:46:21;;;;;;;10.13;8.40;;;;;;;;;;5031718;28;20111;-71
2022/08/24 08:48:48;;;;;;;11.45;7.97;;;;;;;;;;5031922;28;20095;-71
2022/08/24 08:51:20;;;;;;;18.47;16.53;;;;;;;;;;5031973;28;20490;-71
2022/08/24 08:53:49;;;;;;;9.02;7.45;;;;;;;;;;5031903;28;20131;-71
2022/08/24 08:56:34;;;;;;;2.50;1.65;;;;;;;;;;5031704;28;20045;-71
2022/08/24 08:59:06;;;;;;;8.75;7.57;;;;;;;;;;5031416;28;20559;-71
2022/08/24 09:01:50;;;;;;;15.23;13.68;;;;;;;;;;5031460;28;20049;-71
2022/08/24 09:04:37;;;;;;;1.75;1.20;;;;;;;;;;5030720;28;20053;-71
2022/08/24 09:07:03;;;;;;;;;;;;;;;;;;5030639;28;20073;-71
2022/08/24 09:09:44;;;;;;;9.40;8.48;;;;;;;;;;5031466;28;19952;-71
2022/08/24 09:12:14;;;;;;;5.93;4.57;;;;;;;;;;5031409;28;20088;-71
2022/08/24 09:14:59;;;;;;;21.67;18.60;;;;;;;;;;5031404;28;20474;-71
2022/08/24 09:17:29;;;;;;;4.22;2.75;;;;;;;;;;5031464;28;20452;-71
2022/08/24 09:20:14;;;;;;;9.32;8.35;;;;;;;;;;5030079;28;20057;-71
2022/08/24 09:22:42;;;;;;;7.93;6.50;;;;;;;;;;5031697;28;20104;-71
2022/08/24 09:25:20;;;;;;;7.90;5.70;;;;;;;;;;5031807;28;20041;-71
2022/08/24 09:28:04;;;;;;;5.47;4.93;;;;;;;;;;5032224;28;20061;-71
2022/08/24 09:30:40;;;;;;;5.68;4.97;;;;;;;;;;5031495;28;20111;-72
2022/08/24 09:33:20;;;;;;;24.13;17.92;;;;;;;;;;5030198;28;20057;-71
2022/08/24 09:35:50;;;;;;;1.58;0.90;;;;;;;;;;5030578;28;20095;-71
2022/08/24 09:38:22;;;;;;;7.00;5.78;;;;;;;;;;5031248;28;20045;-71
2022/08/24 09:40:49;;;;;;;8.88;6.55;;;;;;;;;;5031208;28;20045;-71
2022/08/24 09:43:24;;;;;;;5.20;3.23;;;;;;;;;;5031022;28;20081;-71
2022/08/24 09:46:10;;;;;;;9.00;7.05;;;;;;;;;;5031349;28;20796;-71
2022/08/24 09:48:38;;;;;;;23.67;17.85;;;;;;;;;;5031436;28;20092;-71
2022/08/24 09:51:14;;;;;;;3.65;3.10;;;;;;;;;;5031126;28;20563;-71
2022/08/24 09:53:53;;;;;;;2.00;1.43;;;;;;;;;;5031352;28;20049;-71
2022/08/24 09:56:31;;;;;;;8.60;6.70;;;;;;;;;;5031084;28;20311;-71
2022/08/24 09:59:17;;;;;;;3.70;2.55;;;;;;;;;;5031272;28;20112;-72
2022/08/24 10:01:50;;;;;;;11.00;8.15;;;;;;;;;;5031078;28;20545;-74
2022/08/24 10:04:16;;;;;;;3.45;2.75;;;;;;;;;;5030173;28;20107;-73
2022/08/24 10:06:58;;;;;;;1.23;1.03;;;;;;;;;;5031026;28;20115;-73
2022/08/24 10:09:34;;;;;;;1.13;1.05;;;;;;;;;;5031161;28;20291;-74
2022/08/24 10:12:04;;;;;;;2.08;1.13;;;;;;;;;;5031085;28;20058;-74
2022/08/24 10:14:30;;;;;;;8.43;6.43;;;;;;;;;;5031125;28;20139;-73
2022/08/24 10:17:03;;;;;;;7.90;6.17;;;;;;;;;;5031139;28;20153;-75
2022/08/24 10:19:39;;;;;;;13.55;10.73;;;;;;;;;;5030858;28;20700;-75
2022/08/24 10:22:21;;;;;;;7.18;5.85;;;;;;;;;;5030517;28;20508;-75
2022/08/24 10:25:07;;;;;;;7.97;5.47;;;;;;;;;;5034062;28;20549;-75
2022/08/24 10:27:40;;;;;;;30.05;20.67;;;;;;;;;;5034040;28;20049;-75
2022/08/24 10:30:06;;;;;;;3.50;2.17;;;;;;;;;;5034341;28;20107;-75
2022/08/24 10:32:42;;;;;;;0.83;0.83;;;;;;;;;;5033703;28;20049;-75
2022/08/24 10:35:12;;;;;;;19.10;12.13;;;;;;;;;;5034118;28;20049;-75
2022/08/24 10:39:39;;;;;;;2.60;2.40;;;;;;;;;;5034026;28;20079;-75
2022/08/24 10:41:04;;;;;;;4.60;3.38;;;;;;;;;;5033988;28;20049;-74
2022/08/24 10:43:41;;;;;;;1.35;1.05;;;;;;;;;;5033095;28;20049;-75
2022/08/24 10:46:17;;;;;;;1.58;1.05;;;;;;;;;;5033836;28;20551;-74
2022/08/24 10:49:02;;;;;;;3.28;1.65;;;;;;;;;;5033976;28;20057;-76
2022/08/24 10:51:49;;;;;;;8.63;5.93;;;;;;;;;;5033940;28;20076;-76
2022/08/24 10:54:17;;;;;;;1.20;1.00;;;;;;;;;;5033816;28;20081;-77
2022/08/24 10:56:55;;;;;;;1.02;0.90;;;;;;;;;;5032213;28;20539;-76
2022/08/24 10:59:22;;;;;;;7.50;5.07;;;;;;;;;;5033308;28;20468;-76
2022/08/24 11:02:25;;;;;;;1.20;1.10;;;;;;;;;;5033886;28;20083;-75
2022/08/24 11:04:55;;;;;;;8.20;5.07;;;;;;;;;;5033677;28;20063;-76
2022/08/24 11:07:22;;;;;;;1.05;0.75;;;;;;;;;;5033858;28;20049;-76
2022/08/24 11:09:52;;;;;;;1.60;1.50;;;;;;;;;;5033544;28;20072;-76
2022/08/24 11:12:30;;;;;;;6.85;3.80;;;;;;;;;;5034095;28;20045;-75
2022/08/24 11:15:02;;;;;;;5.07;3.53;;;;;;;;;;5033449;28;20046;-76
2022/08/24 11:17:30;;;;;;;3.65;2.03;;;;;;;;;;5033375;28;20103;-76
2022/08/24 11:19:58;;;;;;;1.20;1.00;;;;;;;;;;5033286;28;20426;-76
2022/08/24 11:22:40;;;;;;;4.53;2.70;;;;;;;;;;5033578;28;20089;-76
2022/08/24 11:25:12;;;;;;;4.60;2.97;;;;;;;;;;5033737;28;20099;-76
2022/08/24 11:27:40;;;;;;;5.43;3.10;;;;;;;;;;5033487;28;20049;-76
2022/08/24 11:30:10;;;;;;;7.07;3.60;;;;;;;;;;5033432;28;20088;-74
2022/08/24 11:32:50;;;;;;;8.80;4.22;;;;;;;;;;5032977;28;20107;-74
2022/08/24 11:35:19;;;;;;;1.80;1.00;;;;;;;;;;5033023;28;20551;-75
2022/08/24 11:37:47;;;;;;;3.42;1.40;;;;;;;;;;5033244;28;20084;-77
2022/08/24 11:40:14;;;;;;;3.60;2.03;;;;;;;;;;5031803;28;20085;-77
2022/08/24 11:42:44;;;;;;;4.15;2.28;;;;;;;;;;5033170;28;20112;-78
2022/08/24 11:45:31;;;;;;;2.10;0.93;;;;;;;;;;5033140;28;20054;-74
2022/08/24 11:47:58;;;;;;;3.90;1.50;;;;;;;;;;5033248;28;20053;-78
2022/08/24 11:50:40;;;;;;;1.17;0.52;;;;;;;;;;5032826;28;20052;-77
2022/08/24 11:53:10;;;;;;;6.03;3.97;;;;;;;;;;5032893;28;20049;-77
2022/08/24 11:55:41;;;;;;;1.75;1.05;;;;;;;;;;5027664;28;20045;-76
2022/08/24 11:58:35;;;;;;;1.25;0.52;;;;;;;;;;5031236;28;20128;-76
2022/08/24 12:01:22;;;;;;;4.10;2.28;;;;;;;;;;5031754;28;20042;-76
2022/08/24 12:03:59;;;;;;;1.63;0.52;;;;;;;;;;5031117;28;20390;-75
2022/08/24 12:06:37;;;;;;;2.65;2.03;;;;;;;;;;5030184;28;20053;-78
2022/08/24 12:09:22;;;;;;;5.78;4.20;;;;;;;;;;5030632;28;20536;-76
2022/08/24 12:11:49;;;;;;;0.33;0.20;;;;;;;;;;5031162;28;20119;-77
2022/08/24 12:14:25;;;;;;;6.28;4.57;;;;;;;;;;5030817;28;20555;-77
2022/08/24 12:16:58;;;;;;;1.90;1.40;;;;;;;;;;5032364;28;20152;-77
2022/08/24 12:19:36;;;;;;;1.45;0.77;;;;;;;;;;5031995;28;20085;-77
2022/08/24 12:22:05;;;;;;;2.75;2.20;;;;;;;;;;5032495;28;20053;-76
2022/08/24 12:24:38;;;;;;;1.30;0.43;;;;;;;;;;5032118;28;20045;-74
2022/08/24 12:27:12;;;;;;;0.98;0.73;;;;;;;;;;5032106;28;20053;-74
2022/08/24 12:29:44;;;;;;;1.40;1.30;;;;;;;;;;5032333;28;20519;-74
2022/08/24 12:32:13;;;;;;;0.55;0.52;;;;;;;;;;5032135;28;20053;-73
2022/08/24 12:34:40;;;;;;;0.68;0.40;;;;;;;;;;5032230;28;20072;-76
2022/08/24 12:37:09;;;;;;;1.90;1.00;;;;;;;;;;5032176;28;20578;-76
2022/08/24 12:39:45;;;;;;;0.30;0.30;;;;;;;;;;5032210;28;20073;-76
2022/08/24 12:42:17;;;;;;;2.75;2.30;;;;;;;;;;5032023;28;20128;-77
2022/08/24 12:44:53;;;;;;;1.65;1.30;;;;;;;;;;5031207;28;20559;-74
2022/08/24 12:47:22;;;;;;;0.95;0.43;;;;;;;;;;5031853;28;20492;-74
2022/08/24 12:49:56;;;;;;;0.38;0.25;;;;;;;;;;5031646;28;20464;-74
2022/08/24 12:52:25;;;;;;;1.00;0.60;;;;;;;;;;5032069;28;20053;-74
2022/08/24 12:55:06;;;;;;;0.60;0.40;;;;;;;;;;5031761;28;20440;-74
2022/08/24 12:57:38;;;;;;;1.70;1.50;;;;;;;;;;5032064;28;20112;-74
2022/08/24 13:00:12;;;;;;;1.23;0.80;;;;;;;;;;5031800;28;20080;-74
2022/08/24 13:02:40;;;;;;;2.38;1.90;;;;;;;;;;5030750;28;20041;-74
2022/08/24 13:05:15;;;;;;;0.73;0.50;;;;;;;;;;5031708;28;20080;-74
2022/08/24 13:07:45;;;;;;;2.03;0.85;;;;;;;;;;5031858;28;20053;-74
2022/08/24 13:10:14;;;;;;;1.75;0.35;;;;;;;;;;5031705;28;20103;-74
2022/08/24 13:12:43;;;;;;;0.98;0.70;;;;;;;;;;5031734;28;20041;-74
2022/08/24 13:15:19;;;;;;;0.30;0.30;;;;;;;;;;5031557;28;20111;-74
2022/08/24 13:17:46;;;;;;;0.80;0.40;;;;;;;;;;5031358;28;20046;-75
2022/08/24 13:20:22;;;;;;;1.17;0.60;;;;;;;;;;5031388;28;20409;-74
2022/08/24 13:23:03;;;;;;;0.30;0.20;;;;;;;;;;5031442;28;20095;-74
2022/08/24 13:25:56;;;;;;;0.30;0.10;;;;;;;;;;5031575;28;20054;-74
2022/08/24 13:28:23;;;;;;;1.00;0.40;;;;;;;;;;5031137;28;20095;-75
2022/08/24 13:30:52;;;;;;;2.17;0.30;;;;;;;;;;5031607;28;20154;-74
2022/08/24 13:33:38;;;;;;;0.90;0.30;;;;;;;;;;5031637;28;20551;-74
2022/08/24 13:36:05;;;;;;;0.52;0.30;;;;;;;;;;5031192;28;20045;-74
2022/08/24 13:38:34;;;;;;;0.77;0.20;;;;;;;;;;5031325;28;20486;-74
2022/08/24 13:41:06;;;;;;;0.55;0.25;;;;;;;;;;5031642;28;20080;-74
2022/08/24 13:43:51;;;;;;;0.75;0.20;;;;;;;;;;5031557;28;20046;-74
2022/08/24 13:46:26;;;;;;;0.20;0.20;;;;;;;;;;5031491;28;20480;-74
2022/08/24 13:48:53;;;;;;;0.63;0.20;;;;;;;;;;5031492;28;20391;-74
2022/08/24 13:51:20;;;;;;;;;;;;;;;;;;5031488;28;20539;-74
2022/08/24 13:53:46;;;;;;;0.85;0.30;;;;;;;;;;5031095;28;20396;-74
2022/08/24 13:56:12;;;;;;;;;;;;;;;;;;5032569;28;20077;-76
2022/08/24 13:58:58;;;;;;;1.13;0.43;;;;;;;;;;5035157;28;19933;-76
2022/08/24 14:01:25;;;;;;;;;;;;;;;;;;5035148;28;20100;-76
2022/08/24 14:03:51;;;;;;;;;;;;;;;;;;5035603;28;20004;-76
2022/08/24 14:06:18;;;;;;;;;;;;;;;;;;5033508;28;19925;-76
2022/08/24 14:08:55;;;;;;;0.90;0.20;;;;;;;;;;5034698;28;19931;-77
2022/08/24 14:11:22;;;;;;;0.50;0.40;;;;;;;;;;5035078;28;20167;-77
2022/08/24 14:13:51;;;;;;;1.73;0.38;;;;;;;;;;5033390;28;20509;-77
2022/08/24 14:19:31;;;;;;;0.57;0.30;;;;;;;;;;5034488;28;20092;-76
2022/08/24 14:22:23;;;;;;;0.65;0.20;;;;;;;;;;5034810;28;20103;-76
2022/08/24 14:25:01;;;;;;;0.45;0.30;;;;;;;;;;5033805;28;20367;-76
2022/08/24 14:27:34;;;;;;;1.55;0.40;;;;;;;;;;5034377;28;20041;-76
2022/08/24 14:30:22;;;;;;;2.15;0.70;;;;;;;;;;5034335;28;20069;-76
2022/08/24 14:33:02;;;;;;;0.90;0.20;;;;;;;;;;5033616;28;20559;-73
2022/08/24 14:35:31;;;;;;;0.63;0.50;;;;;;;;;;5031551;28;20107;-75
2022/08/24 14:38:07;;;;;;;0.63;0.30;;;;;;;;;;5033705;28;20125;-74
2022/08/24 14:40:53;;;;;;;0.28;0.17;;;;;;;;;;5032955;28;20045;-75
2022/08/24 14:43:19;;;;;;;2.63;1.00;;;;;;;;;;5033396;28;20092;-76
2022/08/24 14:46:05;;;;;;;0.40;0.20;;;;;;;;;;5033284;28;20096;-76
2022/08/24 14:48:47;;;;;;;0.93;0.28;;;;;;;;;;5033233;28;20045;-76
2022/08/24 14:51:20;;;;;;;4.13;0.40;;;;;;;;;;5029149;28;20084;-75
2022/08/24 14:53:49;;;;;;;0.55;0.25;;;;;;;;;;5032923;28;20513;-75
2022/08/24 14:56:21;;;;;;;0.43;0.30;;;;;;;;;;5032716;28;20126;-75
2022/08/24 14:59:04;;;;;;;0.80;0.40;;;;;;;;;;5032740;28;20092;-74
2022/08/24 15:01:31;;;;;;;0.88;0.40;;;;;;;;;;5031238;28;20091;-75
2022/08/24 15:04:02;;;;;;;0.95;0.30;;;;;;;;;;5033479;28;20075;-75
2022/08/24 15:06:38;;;;;;;0.43;0.40;;;;;;;;;;5033684;28;20049;-75
2022/08/24 15:09:05;;;;;;;0.68;0.47;;;;;;;;;;5033160;28;20502;-75
2022/08/24 15:11:34;;;;;;;1.30;0.30;;;;;;;;;;5033549;28;20512;-76
2022/08/24 15:14:04;;;;;;;0.60;0.40;;;;;;;;;;5032743;28;20084;-76
2022/08/24 15:16:34;;;;;;;0.60;0.38;;;;;;;;;;5033749;28;20087;-75
2022/08/24 15:19:06;;;;;;;0.38;0.38;;;;;;;;;;5033594;28;20575;-76